sensor_id;sensor_type;location;lat;lon;timestamp;P1;durP1;ratioP1;P2;durP2;ratioP2
59922;SDS011;45778;51.142;3.732;2022-11-20T00:02:24;2.45;;;1.90;;
59922;SDS011;45778;51.142;3.732;2022-11-20T00:04:50;0.38;;;0.38;;
59922;SDS011;45778;51.142;3.732;2022-11-20T00:07:16;3.00;;;2.70;;
59922;SDS011;45778;51.142;3.732;2022-11-20T00:09:41;0.50;;;0.50;;
59922;SDS011;45778;51.142;3.732;2022-11-20T00:12:07;0.25;;;0.25;;
59922;SDS011;45778;51.142;3.732;2022-11-20T00:14:33;0.25;;;0.25;;
59922;SDS011;45778;51.142;3.732;2022-11-20T00:16:58;3.95;;;1.55;;
59922;SDS011;45778;51.142;3.732;2022-11-20T00:19:24;0.98;;;0.98;;
59922;SDS011;45778;51.142;3.732;2022-11-20T00:21:50;1.45;;;1.35;;
59922;SDS011;45778;51.142;3.732;2022-11-20T00:24:18;0.90;;;0.90;;
59922;SDS011;45778;51.142;3.732;2022-11-20T00:26:44;3.13;;;2.35;;
59922;SDS011;45778;51.142;3.732;2022-11-20T00:29:10;0.52;;;0.52;;
59922;SDS011;45778;51.142;3.732;2022-11-20T00:31:36;0.38;;;0.38;;
59922;SDS011;45778;51.142;3.732;2022-11-20T00:34:01;8.63;;;2.65;;
59922;SDS011;45778;51.142;3.732;2022-11-20T00:36:28;0.20;;;0.20;;
59922;SDS011;45778;51.142;3.732;2022-11-20T00:38:57;0.60;;;0.60;;
59922;SDS011;45778;51.142;3.732;2022-11-20T00:41:24;4.38;;;4.07;;
59922;SDS011;45778;51.142;3.732;2022-11-20T00:43:51;0.32;;;0.32;;
59922;SDS011;45778;51.142;3.732;2022-11-20T00:46:18;0.80;;;0.80;;
59922;SDS011;45778;51.142;3.732;2022-11-20T00:48:46;0.90;;;0.90;;
59922;SDS011;45778;51.142;3.732;2022-11-20T00:51:13;1.50;;;1.48;;
59922;SDS011;45778;51.142;3.732;2022-11-20T00:53:43;1.10;;;0.93;;
59922;SDS011;45778;51.142;3.732;2022-11-20T00:56:10;1.08;;;1.05;;
59922;SDS011;45778;51.142;3.732;2022-11-20T00:58:38;2.55;;;1.00;;
59922;SDS011;45778;51.142;3.732;2022-11-20T01:01:24;5.53;;;3.35;;
59922;SDS011;45778;51.142;3.732;2022-11-20T01:03:51;1.38;;;1.35;;
59922;SDS011;45778;51.142;3.732;2022-11-20T01:06:19;1.67;;;1.55;;
59922;SDS011;45778;51.142;3.732;2022-11-20T01:08:47;2.53;;;2.33;;
59922;SDS011;45778;51.142;3.732;2022-11-20T01:11:15;0.85;;;0.85;;
59922;SDS011;45778;51.142;3.732;2022-11-20T01:13:44;1.10;;;1.10;;
59922;SDS011;45778;51.142;3.732;2022-11-20T01:16:18;2.33;;;1.75;;
59922;SDS011;45778;51.142;3.732;2022-11-20T01:18:47;1.92;;;1.85;;
59922;SDS011;45778;51.142;3.732;2022-11-20T01:21:19;4.68;;;1.77;;
59922;SDS011;45778;51.142;3.732;2022-11-20T01:23:49;1.00;;;1.00;;
59922;SDS011;45778;51.142;3.732;2022-11-20T01:26:20;0.10;;;0.10;;
59922;SDS011;45778;51.142;3.732;2022-11-20T01:28:48;1.45;;;1.45;;
59922;SDS011;45778;51.142;3.732;2022-11-20T01:31:21;0.50;;;0.50;;
59922;SDS011;45778;51.142;3.732;2022-11-20T01:33:49;2.40;;;2.15;;
59922;SDS011;45778;51.142;3.732;2022-11-20T01:36:17;2.00;;;1.65;;
59922;SDS011;45778;51.142;3.732;2022-11-20T01:38:44;1.25;;;1.17;;
59922;SDS011;45778;51.142;3.732;2022-11-20T01:41:10;5.45;;;2.38;;
59922;SDS011;45778;51.142;3.732;2022-11-20T01:43:57;4.25;;;2.22;;
59922;SDS011;45778;51.142;3.732;2022-11-20T01:46:23;0.80;;;0.80;;
59922;SDS011;45778;51.142;3.732;2022-11-20T01:51:38;0.43;;;0.43;;
59922;SDS011;45778;51.142;3.732;2022-11-20T01:54:18;0.93;;;0.93;;
59922;SDS011;45778;51.142;3.732;2022-11-20T01:56:48;0.30;;;0.30;;
59922;SDS011;45778;51.142;3.732;2022-11-20T01:59:18;0.68;;;0.68;;
59922;SDS011;45778;51.142;3.732;2022-11-20T02:01:45;1.48;;;1.45;;
59922;SDS011;45778;51.142;3.732;2022-11-20T02:04:11;1.05;;;1.05;;
59922;SDS011;45778;51.142;3.732;2022-11-20T02:06:41;1.10;;;1.10;;
59922;SDS011;45778;51.142;3.732;2022-11-20T02:09:11;4.03;;;2.50;;
59922;SDS011;45778;51.142;3.732;2022-11-20T02:11:37;0.63;;;0.63;;
59922;SDS011;45778;51.142;3.732;2022-11-20T02:14:02;2.92;;;2.60;;
59922;SDS011;45778;51.142;3.732;2022-11-20T02:16:30;3.83;;;1.40;;
59922;SDS011;45778;51.142;3.732;2022-11-20T02:19:00;4.30;;;3.92;;
59922;SDS011;45778;51.142;3.732;2022-11-20T02:24:20;0.43;;;0.20;;
59922;SDS011;45778;51.142;3.732;2022-11-20T02:26:54;6.00;;;1.98;;
59922;SDS011;45778;51.142;3.732;2022-11-20T02:29:28;2.65;;;2.00;;
59922;SDS011;45778;51.142;3.732;2022-11-20T02:31:58;1.90;;;1.83;;
59922;SDS011;45778;51.142;3.732;2022-11-20T02:34:26;0.77;;;0.77;;
59922;SDS011;45778;51.142;3.732;2022-11-20T02:36:52;0.30;;;0.30;;
59922;SDS011;45778;51.142;3.732;2022-11-20T02:39:18;0.80;;;0.80;;
59922;SDS011;45778;51.142;3.732;2022-11-20T02:41:45;0.57;;;0.57;;
59922;SDS011;45778;51.142;3.732;2022-11-20T02:44:11;1.30;;;1.23;;
59922;SDS011;45778;51.142;3.732;2022-11-20T02:46:37;0.17;;;0.17;;
59922;SDS011;45778;51.142;3.732;2022-11-20T02:49:03;4.65;;;3.22;;
59922;SDS011;45778;51.142;3.732;2022-11-20T02:51:29;1.65;;;1.13;;
59922;SDS011;45778;51.142;3.732;2022-11-20T02:53:55;1.25;;;1.25;;
59922;SDS011;45778;51.142;3.732;2022-11-20T02:56:21;0.47;;;0.47;;
59922;SDS011;45778;51.142;3.732;2022-11-20T02:58:47;0.82;;;0.75;;
59922;SDS011;45778;51.142;3.732;2022-11-20T03:01:13;1.60;;;1.27;;
59922;SDS011;45778;51.142;3.732;2022-11-20T03:03:39;62.40;;;27.83;;
59922;SDS011;45778;51.142;3.732;2022-11-20T03:06:05;75.30;;;33.33;;
59922;SDS011;45778;51.142;3.732;2022-11-20T03:08:31;72.25;;;32.00;;
59922;SDS011;45778;51.142;3.732;2022-11-20T03:10:56;80.20;;;33.53;;
59922;SDS011;45778;51.142;3.732;2022-11-20T03:13:28;75.90;;;32.50;;
59922;SDS011;45778;51.142;3.732;2022-11-20T03:15:53;80.68;;;33.67;;
59922;SDS011;45778;51.142;3.732;2022-11-20T03:18:19;79.20;;;32.13;;
59922;SDS011;45778;51.142;3.732;2022-11-20T03:20:45;67.32;;;31.63;;
59922;SDS011;45778;51.142;3.732;2022-11-20T03:23:11;68.65;;;33.47;;
59922;SDS011;45778;51.142;3.732;2022-11-20T03:25:36;73.13;;;31.58;;
59922;SDS011;45778;51.142;3.732;2022-11-20T03:28:02;73.22;;;32.80;;
59922;SDS011;45778;51.142;3.732;2022-11-20T03:30:28;71.88;;;32.60;;
59922;SDS011;45778;51.142;3.732;2022-11-20T03:32:53;66.55;;;31.10;;
59922;SDS011;45778;51.142;3.732;2022-11-20T03:35:19;76.75;;;31.42;;
59922;SDS011;45778;51.142;3.732;2022-11-20T03:37:45;74.30;;;32.70;;
59922;SDS011;45778;51.142;3.732;2022-11-20T03:40:11;78.30;;;33.15;;
59922;SDS011;45778;51.142;3.732;2022-11-20T03:42:37;81.30;;;33.95;;
59922;SDS011;45778;51.142;3.732;2022-11-20T03:45:12;69.03;;;31.52;;
59922;SDS011;45778;51.142;3.732;2022-11-20T03:47:39;74.05;;;32.05;;
59922;SDS011;45778;51.142;3.732;2022-11-20T03:50:05;69.15;;;30.42;;
59922;SDS011;45778;51.142;3.732;2022-11-20T03:52:31;74.15;;;33.08;;
59922;SDS011;45778;51.142;3.732;2022-11-20T03:54:56;73.18;;;31.70;;
59922;SDS011;45778;51.142;3.732;2022-11-20T03:57:22;77.15;;;33.85;;
59922;SDS011;45778;51.142;3.732;2022-11-20T03:59:48;83.47;;;35.17;;
59922;SDS011;45778;51.142;3.732;2022-11-20T04:02:14;80.15;;;35.58;;
59922;SDS011;45778;51.142;3.732;2022-11-20T04:04:39;77.97;;;33.70;;
59922;SDS011;45778;51.142;3.732;2022-11-20T04:07:05;77.65;;;33.42;;
59922;SDS011;45778;51.142;3.732;2022-11-20T04:09:31;78.03;;;33.80;;
59922;SDS011;45778;51.142;3.732;2022-11-20T04:11:56;85.40;;;34.10;;
59922;SDS011;45778;51.142;3.732;2022-11-20T04:14:22;76.75;;;33.65;;
59922;SDS011;45778;51.142;3.732;2022-11-20T04:16:48;86.85;;;36.50;;
59922;SDS011;45778;51.142;3.732;2022-11-20T04:19:14;83.65;;;33.15;;
59922;SDS011;45778;51.142;3.732;2022-11-20T04:21:41;80.90;;;34.55;;
59922;SDS011;45778;51.142;3.732;2022-11-20T04:24:08;88.72;;;35.47;;
59922;SDS011;45778;51.142;3.732;2022-11-20T04:26:35;86.85;;;35.15;;
59922;SDS011;45778;51.142;3.732;2022-11-20T04:29:01;83.25;;;35.85;;
59922;SDS011;45778;51.142;3.732;2022-11-20T04:31:29;83.68;;;37.28;;
59922;SDS011;45778;51.142;3.732;2022-11-20T04:34:00;83.13;;;36.22;;
59922;SDS011;45778;51.142;3.732;2022-11-20T04:36:26;74.50;;;34.95;;
59922;SDS011;45778;51.142;3.732;2022-11-20T04:38:54;86.07;;;36.67;;
59922;SDS011;45778;51.142;3.732;2022-11-20T04:41:22;81.07;;;36.10;;
59922;SDS011;45778;51.142;3.732;2022-11-20T04:43:49;89.85;;;35.05;;
59922;SDS011;45778;51.142;3.732;2022-11-20T04:46:16;81.65;;;35.33;;
59922;SDS011;45778;51.142;3.732;2022-11-20T04:48:43;89.55;;;37.70;;
59922;SDS011;45778;51.142;3.732;2022-11-20T04:51:09;91.82;;;35.10;;
59922;SDS011;45778;51.142;3.732;2022-11-20T04:53:35;99.45;;;35.97;;
59922;SDS011;45778;51.142;3.732;2022-11-20T04:56:01;82.78;;;34.50;;
59922;SDS011;45778;51.142;3.732;2022-11-20T04:58:28;88.28;;;34.75;;
59922;SDS011;45778;51.142;3.732;2022-11-20T05:01:00;105.70;;;36.92;;
59922;SDS011;45778;51.142;3.732;2022-11-20T05:03:27;104.65;;;37.22;;
59922;SDS011;45778;51.142;3.732;2022-11-20T05:05:53;95.75;;;36.55;;
59922;SDS011;45778;51.142;3.732;2022-11-20T05:08:18;96.88;;;35.08;;
59922;SDS011;45778;51.142;3.732;2022-11-20T05:10:44;84.57;;;34.13;;
59922;SDS011;45778;51.142;3.732;2022-11-20T05:13:09;93.03;;;36.03;;
59922;SDS011;45778;51.142;3.732;2022-11-20T05:15:35;95.93;;;35.80;;
59922;SDS011;45778;51.142;3.732;2022-11-20T05:18:01;92.75;;;34.22;;
59922;SDS011;45778;51.142;3.732;2022-11-20T05:20:26;96.38;;;34.90;;
59922;SDS011;45778;51.142;3.732;2022-11-20T05:22:52;89.80;;;34.70;;
59922;SDS011;45778;51.142;3.732;2022-11-20T05:25:22;85.03;;;35.47;;
59922;SDS011;45778;51.142;3.732;2022-11-20T05:27:47;94.28;;;35.33;;
59922;SDS011;45778;51.142;3.732;2022-11-20T05:30:13;98.70;;;36.33;;
59922;SDS011;45778;51.142;3.732;2022-11-20T05:32:39;91.47;;;37.28;;
59922;SDS011;45778;51.142;3.732;2022-11-20T05:35:05;103.45;;;36.95;;
59922;SDS011;45778;51.142;3.732;2022-11-20T05:37:31;93.97;;;38.38;;
59922;SDS011;45778;51.142;3.732;2022-11-20T05:39:57;97.38;;;37.38;;
59922;SDS011;45778;51.142;3.732;2022-11-20T05:42:23;94.72;;;37.03;;
59922;SDS011;45778;51.142;3.732;2022-11-20T05:45:01;97.75;;;38.25;;
59922;SDS011;45778;51.142;3.732;2022-11-20T05:47:31;87.00;;;37.15;;
59922;SDS011;45778;51.142;3.732;2022-11-20T05:49:57;86.20;;;36.90;;
59922;SDS011;45778;51.142;3.732;2022-11-20T05:52:23;84.07;;;36.40;;
59922;SDS011;45778;51.142;3.732;2022-11-20T05:54:49;87.38;;;35.25;;
59922;SDS011;45778;51.142;3.732;2022-11-20T05:57:15;87.78;;;35.78;;
59922;SDS011;45778;51.142;3.732;2022-11-20T05:59:41;84.53;;;34.97;;
59922;SDS011;45778;51.142;3.732;2022-11-20T06:02:06;98.25;;;35.88;;
59922;SDS011;45778;51.142;3.732;2022-11-20T06:04:32;99.18;;;36.10;;
59922;SDS011;45778;51.142;3.732;2022-11-20T06:06:58;96.05;;;35.67;;
59922;SDS011;45778;51.142;3.732;2022-11-20T06:09:24;91.97;;;34.33;;
59922;SDS011;45778;51.142;3.732;2022-11-20T06:11:49;94.25;;;33.78;;
59922;SDS011;45778;51.142;3.732;2022-11-20T06:14:15;90.25;;;36.35;;
59922;SDS011;45778;51.142;3.732;2022-11-20T06:16:41;108.50;;;35.88;;
59922;SDS011;45778;51.142;3.732;2022-11-20T06:19:06;102.28;;;35.35;;
59922;SDS011;45778;51.142;3.732;2022-11-20T06:21:32;106.10;;;36.72;;
59922;SDS011;45778;51.142;3.732;2022-11-20T06:23:57;99.57;;;36.45;;
59922;SDS011;45778;51.142;3.732;2022-11-20T06:26:24;101.80;;;37.08;;
59922;SDS011;45778;51.142;3.732;2022-11-20T06:28:52;106.85;;;34.63;;
59922;SDS011;45778;51.142;3.732;2022-11-20T06:31:20;96.00;;;35.42;;
59922;SDS011;45778;51.142;3.732;2022-11-20T06:33:47;96.65;;;35.05;;
59922;SDS011;45778;51.142;3.732;2022-11-20T06:36:14;99.82;;;35.38;;
59922;SDS011;45778;51.142;3.732;2022-11-20T06:38:42;99.35;;;37.92;;
59922;SDS011;45778;51.142;3.732;2022-11-20T06:41:12;104.45;;;35.63;;
59922;SDS011;45778;51.142;3.732;2022-11-20T06:43:40;99.53;;;35.75;;
59922;SDS011;45778;51.142;3.732;2022-11-20T06:46:06;103.45;;;35.80;;
59922;SDS011;45778;51.142;3.732;2022-11-20T06:48:32;100.07;;;36.28;;
59922;SDS011;45778;51.142;3.732;2022-11-20T06:50:57;96.57;;;35.92;;
59922;SDS011;45778;51.142;3.732;2022-11-20T06:53:24;100.60;;;35.58;;
59922;SDS011;45778;51.142;3.732;2022-11-20T06:55:50;99.88;;;36.47;;
59922;SDS011;45778;51.142;3.732;2022-11-20T06:58:16;101.50;;;36.35;;
59922;SDS011;45778;51.142;3.732;2022-11-20T07:00:43;101.63;;;34.47;;
59922;SDS011;45778;51.142;3.732;2022-11-20T07:03:09;88.13;;;33.88;;
59922;SDS011;45778;51.142;3.732;2022-11-20T07:05:35;101.18;;;34.35;;
59922;SDS011;45778;51.142;3.732;2022-11-20T07:08:03;95.70;;;34.58;;
59922;SDS011;45778;51.142;3.732;2022-11-20T07:10:29;99.10;;;35.03;;
59922;SDS011;45778;51.142;3.732;2022-11-20T07:12:55;98.22;;;35.88;;
59922;SDS011;45778;51.142;3.732;2022-11-20T07:15:22;99.32;;;41.00;;
59922;SDS011;45778;51.142;3.732;2022-11-20T07:17:48;105.85;;;41.08;;
59922;SDS011;45778;51.142;3.732;2022-11-20T07:20:14;113.82;;;42.60;;
59922;SDS011;45778;51.142;3.732;2022-11-20T07:22:41;103.72;;;41.95;;
59922;SDS011;45778;51.142;3.732;2022-11-20T07:25:07;88.53;;;38.47;;
59922;SDS011;45778;51.142;3.732;2022-11-20T07:27:34;92.55;;;36.92;;
59922;SDS011;45778;51.142;3.732;2022-11-20T07:30:01;92.45;;;39.08;;
59922;SDS011;45778;51.142;3.732;2022-11-20T07:32:30;97.97;;;39.75;;
59922;SDS011;45778;51.142;3.732;2022-11-20T07:34:56;91.28;;;37.90;;
59922;SDS011;45778;51.142;3.732;2022-11-20T07:37:21;94.45;;;37.45;;
59922;SDS011;45778;51.142;3.732;2022-11-20T07:39:47;86.22;;;37.33;;
59922;SDS011;45778;51.142;3.732;2022-11-20T07:42:13;90.55;;;35.65;;
59922;SDS011;45778;51.142;3.732;2022-11-20T07:44:38;90.57;;;36.30;;
59922;SDS011;45778;51.142;3.732;2022-11-20T07:47:04;94.15;;;35.75;;
59922;SDS011;45778;51.142;3.732;2022-11-20T07:49:30;95.82;;;35.47;;
59922;SDS011;45778;51.142;3.732;2022-11-20T07:51:55;88.03;;;36.58;;
59922;SDS011;45778;51.142;3.732;2022-11-20T07:54:21;89.97;;;36.00;;
59922;SDS011;45778;51.142;3.732;2022-11-20T07:56:48;87.72;;;37.35;;
59922;SDS011;45778;51.142;3.732;2022-11-20T07:59:14;87.57;;;35.67;;
59922;SDS011;45778;51.142;3.732;2022-11-20T08:01:40;85.65;;;34.88;;
59922;SDS011;45778;51.142;3.732;2022-11-20T08:04:07;86.10;;;33.97;;
59922;SDS011;45778;51.142;3.732;2022-11-20T08:06:32;101.40;;;37.25;;
59922;SDS011;45778;51.142;3.732;2022-11-20T08:08:58;82.07;;;35.30;;
59922;SDS011;45778;51.142;3.732;2022-11-20T08:11:25;102.80;;;37.60;;
59922;SDS011;45778;51.142;3.732;2022-11-20T08:14:09;81.10;;;35.17;;
59922;SDS011;45778;51.142;3.732;2022-11-20T08:16:41;83.35;;;35.45;;
59922;SDS011;45778;51.142;3.732;2022-11-20T08:19:09;79.70;;;35.70;;
59922;SDS011;45778;51.142;3.732;2022-11-20T08:21:35;82.15;;;33.80;;
59922;SDS011;45778;51.142;3.732;2022-11-20T08:24:01;84.80;;;34.60;;
59922;SDS011;45778;51.142;3.732;2022-11-20T08:26:27;84.20;;;35.22;;
59922;SDS011;45778;51.142;3.732;2022-11-20T08:28:53;91.45;;;37.40;;
59922;SDS011;45778;51.142;3.732;2022-11-20T08:31:20;85.25;;;36.88;;
59922;SDS011;45778;51.142;3.732;2022-11-20T08:33:46;93.35;;;39.97;;
59922;SDS011;45778;51.142;3.732;2022-11-20T08:36:12;93.57;;;39.10;;
59922;SDS011;45778;51.142;3.732;2022-11-20T08:38:37;84.03;;;32.72;;
59922;SDS011;45778;51.142;3.732;2022-11-20T08:41:03;81.55;;;31.25;;
59922;SDS011;45778;51.142;3.732;2022-11-20T08:43:48;81.97;;;33.50;;
59922;SDS011;45778;51.142;3.732;2022-11-20T08:46:18;82.63;;;32.72;;
59922;SDS011;45778;51.142;3.732;2022-11-20T08:48:44;78.30;;;31.08;;
59922;SDS011;45778;51.142;3.732;2022-11-20T08:51:10;84.65;;;30.52;;
59922;SDS011;45778;51.142;3.732;2022-11-20T08:53:38;73.40;;;30.30;;
59922;SDS011;45778;51.142;3.732;2022-11-20T08:56:04;79.65;;;28.88;;
59922;SDS011;45778;51.142;3.732;2022-11-20T08:58:30;82.18;;;31.30;;
59922;SDS011;45778;51.142;3.732;2022-11-20T09:00:56;75.22;;;28.02;;
59922;SDS011;45778;51.142;3.732;2022-11-20T09:03:22;77.93;;;29.10;;
59922;SDS011;45778;51.142;3.732;2022-11-20T09:05:48;75.72;;;29.27;;
59922;SDS011;45778;51.142;3.732;2022-11-20T09:08:13;70.07;;;28.10;;
59922;SDS011;45778;51.142;3.732;2022-11-20T09:10:39;78.40;;;28.25;;
59922;SDS011;45778;51.142;3.732;2022-11-20T09:13:05;69.10;;;26.70;;
59922;SDS011;45778;51.142;3.732;2022-11-20T09:15:31;69.38;;;28.38;;
59922;SDS011;45778;51.142;3.732;2022-11-20T09:17:58;73.55;;;30.25;;
59922;SDS011;45778;51.142;3.732;2022-11-20T09:20:29;77.15;;;31.50;;
59922;SDS011;45778;51.142;3.732;2022-11-20T09:22:55;67.88;;;28.20;;
59922;SDS011;45778;51.142;3.732;2022-11-20T09:25:21;72.50;;;33.85;;
59922;SDS011;45778;51.142;3.732;2022-11-20T09:27:47;59.30;;;26.90;;
59922;SDS011;45778;51.142;3.732;2022-11-20T09:30:13;62.10;;;27.88;;
59922;SDS011;45778;51.142;3.732;2022-11-20T09:32:40;72.50;;;30.88;;
59922;SDS011;45778;51.142;3.732;2022-11-20T09:35:06;65.72;;;32.17;;
59922;SDS011;45778;51.142;3.732;2022-11-20T09:37:32;63.95;;;30.33;;
59922;SDS011;45778;51.142;3.732;2022-11-20T09:39:58;62.38;;;30.50;;
59922;SDS011;45778;51.142;3.732;2022-11-20T09:54:02;62.72;;;33.45;;
59922;SDS011;45778;51.142;3.732;2022-11-20T09:56:44;58.13;;;32.95;;
59922;SDS011;45778;51.142;3.732;2022-11-20T09:59:23;62.78;;;33.03;;
59922;SDS011;45778;51.142;3.732;2022-11-20T10:04:57;56.40;;;31.85;;
59922;SDS011;45778;51.142;3.732;2022-11-20T10:10:04;44.45;;;22.35;;
59922;SDS011;45778;51.142;3.732;2022-11-20T10:12:43;42.47;;;25.35;;
59922;SDS011;45778;51.142;3.732;2022-11-20T10:21:17;32.55;;;17.00;;
59922;SDS011;45778;51.142;3.732;2022-11-20T10:26:42;37.55;;;18.77;;
59922;SDS011;45778;51.142;3.732;2022-11-20T10:29:18;28.10;;;14.60;;
59922;SDS011;45778;51.142;3.732;2022-11-20T10:31:56;29.02;;;15.45;;
59922;SDS011;45778;51.142;3.732;2022-11-20T10:34:32;28.40;;;15.85;;
59922;SDS011;45778;51.142;3.732;2022-11-20T10:37:23;28.48;;;15.60;;
59922;SDS011;45778;51.142;3.732;2022-11-20T10:42:42;26.40;;;12.63;;
59922;SDS011;45778;51.142;3.732;2022-11-20T10:47:52;26.35;;;15.90;;
59922;SDS011;45778;51.142;3.732;2022-11-20T10:50:43;24.83;;;13.48;;
59922;SDS011;45778;51.142;3.732;2022-11-20T10:53:40;22.58;;;13.25;;
59922;SDS011;45778;51.142;3.732;2022-11-20T10:58:52;28.85;;;10.48;;
59922;SDS011;45778;51.142;3.732;2022-11-20T11:03:52;16.70;;;8.52;;
59922;SDS011;45778;51.142;3.732;2022-11-20T11:08:58;22.05;;;8.23;;
59922;SDS011;45778;51.142;3.732;2022-11-20T11:11:32;13.68;;;7.32;;
59922;SDS011;45778;51.142;3.732;2022-11-20T11:14:09;17.77;;;8.23;;
59922;SDS011;45778;51.142;3.732;2022-11-20T11:16:40;11.20;;;5.70;;
59922;SDS011;45778;51.142;3.732;2022-11-20T11:19:19;9.50;;;5.38;;
59922;SDS011;45778;51.142;3.732;2022-11-20T11:21:55;14.48;;;6.07;;
59922;SDS011;45778;51.142;3.732;2022-11-20T11:24:28;10.18;;;4.65;;
59922;SDS011;45778;51.142;3.732;2022-11-20T11:26:56;8.80;;;4.30;;
59922;SDS011;45778;51.142;3.732;2022-11-20T11:29:29;9.40;;;4.13;;
59922;SDS011;45778;51.142;3.732;2022-11-20T11:34:37;11.32;;;4.00;;
59922;SDS011;45778;51.142;3.732;2022-11-20T11:37:03;6.85;;;3.20;;
59922;SDS011;45778;51.142;3.732;2022-11-20T11:39:30;7.63;;;4.07;;
59922;SDS011;45778;51.142;3.732;2022-11-20T11:41:58;16.38;;;7.43;;
59922;SDS011;45778;51.142;3.732;2022-11-20T11:44:32;11.73;;;5.57;;
59922;SDS011;45778;51.142;3.732;2022-11-20T11:50:07;8.50;;;3.65;;
59922;SDS011;45778;51.142;3.732;2022-11-20T11:55:35;7.10;;;3.47;;
59922;SDS011;45778;51.142;3.732;2022-11-20T12:03:50;7.45;;;2.70;;
59922;SDS011;45778;51.142;3.732;2022-11-20T12:06:24;5.07;;;3.00;;
59922;SDS011;45778;51.142;3.732;2022-11-20T12:08:56;12.77;;;4.10;;
59922;SDS011;45778;51.142;3.732;2022-11-20T12:16:57;9.13;;;4.72;;
59922;SDS011;45778;51.142;3.732;2022-11-20T12:19:23;13.27;;;5.15;;
59922;SDS011;45778;51.142;3.732;2022-11-20T12:21:58;23.60;;;15.50;;
59922;SDS011;45778;51.142;3.732;2022-11-20T12:30:17;16.42;;;11.95;;
59922;SDS011;45778;51.142;3.732;2022-11-20T12:52:54;8.90;;;6.60;;
59922;SDS011;45778;51.142;3.732;2022-11-20T12:55:46;8.50;;;6.65;;
59922;SDS011;45778;51.142;3.732;2022-11-20T12:58:16;9.55;;;7.47;;
59922;SDS011;45778;51.142;3.732;2022-11-20T13:07:19;9.45;;;6.22;;
59922;SDS011;45778;51.142;3.732;2022-11-20T13:09:49;10.55;;;6.10;;
59922;SDS011;45778;51.142;3.732;2022-11-20T13:13:18;9.38;;;6.07;;
59922;SDS011;45778;51.142;3.732;2022-11-20T13:15:26;10.30;;;5.40;;
59922;SDS011;45778;51.142;3.732;2022-11-20T13:18:07;9.40;;;5.55;;
59922;SDS011;45778;51.142;3.732;2022-11-20T13:20:35;8.63;;;4.65;;
59922;SDS011;45778;51.142;3.732;2022-11-20T13:23:06;8.65;;;5.63;;
59922;SDS011;45778;51.142;3.732;2022-11-20T13:30:36;6.30;;;5.43;;
59922;SDS011;45778;51.142;3.732;2022-11-20T13:33:32;9.38;;;5.47;;
59922;SDS011;45778;51.142;3.732;2022-11-20T13:36:04;7.57;;;5.68;;
59922;SDS011;45778;51.142;3.732;2022-11-20T13:38:44;9.52;;;5.55;;
59922;SDS011;45778;51.142;3.732;2022-11-20T13:41:26;5.63;;;4.80;;
59922;SDS011;45778;51.142;3.732;2022-11-20T13:43:59;4.32;;;3.25;;
59922;SDS011;45778;51.142;3.732;2022-11-20T13:46:35;7.47;;;4.93;;
59922;SDS011;45778;51.142;3.732;2022-11-20T13:49:10;7.82;;;5.10;;
59922;SDS011;45778;51.142;3.732;2022-11-20T13:55:13;6.78;;;4.25;;
59922;SDS011;45778;51.142;3.732;2022-11-20T14:00:29;6.32;;;4.30;;
59922;SDS011;45778;51.142;3.732;2022-11-20T14:05:34;6.25;;;3.70;;
59922;SDS011;45778;51.142;3.732;2022-11-20T14:08:04;5.65;;;4.20;;
59922;SDS011;45778;51.142;3.732;2022-11-20T14:10:36;4.35;;;3.33;;
59922;SDS011;45778;51.142;3.732;2022-11-20T14:13:12;3.63;;;3.33;;
59922;SDS011;45778;51.142;3.732;2022-11-20T14:15:43;4.57;;;3.47;;
59922;SDS011;45778;51.142;3.732;2022-11-20T14:18:18;4.43;;;2.75;;
59922;SDS011;45778;51.142;3.732;2022-11-20T14:20:46;3.85;;;3.08;;
59922;SDS011;45778;51.142;3.732;2022-11-20T14:23:22;6.10;;;3.30;;
59922;SDS011;45778;51.142;3.732;2022-11-20T14:25:50;5.82;;;3.67;;
59922;SDS011;45778;51.142;3.732;2022-11-20T14:28:25;4.05;;;3.05;;
59922;SDS011;45778;51.142;3.732;2022-11-20T14:30:53;5.72;;;3.13;;
59922;SDS011;45778;51.142;3.732;2022-11-20T14:33:20;5.97;;;3.63;;
59922;SDS011;45778;51.142;3.732;2022-11-20T14:35:50;4.78;;;3.45;;
59922;SDS011;45778;51.142;3.732;2022-11-20T14:38:20;6.53;;;3.30;;
59922;SDS011;45778;51.142;3.732;2022-11-20T14:40:51;5.65;;;3.67;;
59922;SDS011;45778;51.142;3.732;2022-11-20T14:46:05;8.77;;;3.70;;
59922;SDS011;45778;51.142;3.732;2022-11-20T14:51:05;4.00;;;2.95;;
59922;SDS011;45778;51.142;3.732;2022-11-20T14:53:31;3.25;;;2.45;;
59922;SDS011;45778;51.142;3.732;2022-11-20T14:56:00;3.78;;;2.47;;
59922;SDS011;45778;51.142;3.732;2022-11-20T14:58:28;3.20;;;2.38;;
59922;SDS011;45778;51.142;3.732;2022-11-20T15:00:59;5.40;;;2.03;;
59922;SDS011;45778;51.142;3.732;2022-11-20T15:03:36;3.20;;;2.15;;
59922;SDS011;45778;51.142;3.732;2022-11-20T15:06:04;6.20;;;2.10;;
59922;SDS011;45778;51.142;3.732;2022-11-20T15:08:31;8.63;;;2.30;;
59922;SDS011;45778;51.142;3.732;2022-11-20T15:10:57;3.80;;;1.98;;
59922;SDS011;45778;51.142;3.732;2022-11-20T15:13:24;12.45;;;3.08;;
59922;SDS011;45778;51.142;3.732;2022-11-20T15:16:00;10.50;;;2.05;;
59922;SDS011;45778;51.142;3.732;2022-11-20T15:18:32;10.88;;;2.40;;
59922;SDS011;45778;51.142;3.732;2022-11-20T15:21:10;12.10;;;1.80;;
59922;SDS011;45778;51.142;3.732;2022-11-20T15:23:37;11.13;;;2.58;;
59922;SDS011;45778;51.142;3.732;2022-11-20T15:26:09;8.98;;;2.03;;
59922;SDS011;45778;51.142;3.732;2022-11-20T15:28:39;12.88;;;2.67;;
59922;SDS011;45778;51.142;3.732;2022-11-20T15:31:09;10.25;;;3.35;;
59922;SDS011;45778;51.142;3.732;2022-11-20T15:33:37;12.70;;;2.30;;
59922;SDS011;45778;51.142;3.732;2022-11-20T15:36:03;14.98;;;3.72;;
59922;SDS011;45778;51.142;3.732;2022-11-20T15:38:29;16.05;;;3.33;;
59922;SDS011;45778;51.142;3.732;2022-11-20T15:40:54;11.25;;;2.53;;
59922;SDS011;45778;51.142;3.732;2022-11-20T15:43:20;12.80;;;2.40;;
59922;SDS011;45778;51.142;3.732;2022-11-20T15:45:46;15.88;;;3.40;;
59922;SDS011;45778;51.142;3.732;2022-11-20T15:51:14;21.40;;;5.93;;
59922;SDS011;45778;51.142;3.732;2022-11-20T15:53:49;15.95;;;5.13;;
59922;SDS011;45778;51.142;3.732;2022-11-20T15:56:15;12.75;;;3.55;;
59922;SDS011;45778;51.142;3.732;2022-11-20T15:58:41;19.10;;;3.00;;
59922;SDS011;45778;51.142;3.732;2022-11-20T16:01:14;15.73;;;3.13;;
59922;SDS011;45778;51.142;3.732;2022-11-20T16:03:42;15.23;;;3.28;;
59922;SDS011;45778;51.142;3.732;2022-11-20T16:06:08;14.30;;;2.60;;
59922;SDS011;45778;51.142;3.732;2022-11-20T16:08:33;10.70;;;3.28;;
59922;SDS011;45778;51.142;3.732;2022-11-20T16:10:59;12.52;;;4.32;;
59922;SDS011;45778;51.142;3.732;2022-11-20T16:13:25;23.58;;;8.00;;
59922;SDS011;45778;51.142;3.732;2022-11-20T16:16:28;23.65;;;9.52;;
59922;SDS011;45778;51.142;3.732;2022-11-20T16:19:02;29.50;;;13.33;;
59922;SDS011;45778;51.142;3.732;2022-11-20T16:21:28;19.85;;;7.60;;
59922;SDS011;45778;51.142;3.732;2022-11-20T16:24:07;31.70;;;11.10;;
59922;SDS011;45778;51.142;3.732;2022-11-20T16:26:35;26.10;;;7.03;;
59922;SDS011;45778;51.142;3.732;2022-11-20T16:29:02;9.52;;;2.47;;
59922;SDS011;45778;51.142;3.732;2022-11-20T16:31:29;11.18;;;3.58;;
59922;SDS011;45778;51.142;3.732;2022-11-20T16:33:56;8.75;;;2.00;;
59922;SDS011;45778;51.142;3.732;2022-11-20T16:36:23;10.48;;;2.55;;
59922;SDS011;45778;51.142;3.732;2022-11-20T16:38:54;8.20;;;1.80;;
59922;SDS011;45778;51.142;3.732;2022-11-20T16:41:21;14.00;;;2.00;;